createdAt,value
2023-02-14T00:01:12.236Z,0.80
2023-02-14T00:03:39.921Z,0.80
2023-02-14T00:06:08.247Z,0.90
2023-02-14T00:08:35.866Z,0.90
2023-02-14T00:11:03.966Z,1.00
2023-02-14T00:13:31.574Z,1.00
2023-02-14T00:15:58.838Z,1.00
2023-02-14T00:18:45.504Z,1.00
2023-02-14T00:21:12.494Z,1.00
2023-02-14T00:23:39.537Z,0.90
2023-02-14T00:26:12.788Z,1.00
2023-02-14T00:28:39.737Z,0.90
2023-02-14T00:31:06.749Z,0.90
2023-02-14T00:33:37.004Z,0.80
2023-02-14T00:36:15.382Z,1.00
2023-02-14T00:38:42.247Z,1.00
2023-02-14T00:41:19.302Z,0.80
2023-02-14T00:43:54.035Z,0.80
2023-02-14T00:46:22.795Z,0.80
2023-02-14T00:48:51.970Z,0.70
2023-02-14T00:51:23.024Z,0.70
2023-02-14T00:53:50.715Z,0.70
2023-02-14T00:56:19.229Z,0.70
2023-02-14T00:58:46.305Z,0.60
2023-02-14T01:01:14.835Z,0.60
2023-02-14T01:03:42.325Z,0.60
2023-02-14T01:06:09.526Z,0.70
2023-02-14T01:08:39.603Z,0.50
2023-02-14T01:11:15.566Z,0.50
2023-02-14T01:13:43.643Z,0.40
2023-02-14T01:16:15.201Z,0.40
2023-02-14T01:18:43.254Z,0.30
2023-02-14T01:21:11.633Z,0.40
2023-02-14T01:23:38.534Z,0.30
2023-02-14T01:26:06.698Z,0.30
2023-02-14T01:28:33.974Z,0.20
2023-02-14T01:31:08.394Z,0.20
2023-02-14T01:33:35.329Z,0.20
2023-02-14T01:36:02.665Z,0.20
2023-02-14T01:38:29.713Z,0.10
2023-02-14T01:40:57.118Z,0.10
2023-02-14T01:43:24.373Z,0.00
2023-02-14T01:45:54.776Z,0.00
2023-02-14T01:48:23.090Z,0.00
2023-02-14T01:50:52.439Z,0.00
2023-02-14T01:53:26.499Z,0.00
2023-02-14T01:56:02.778Z,0.00
2023-02-14T01:58:37.122Z,0.00
2023-02-14T02:01:05.796Z,-0.10
2023-02-14T02:03:45.867Z,-0.10
2023-02-14T02:06:22.407Z,0.00
2023-02-14T02:09:17.661Z,-0.10
2023-02-14T02:11:45.566Z,0.00
2023-02-14T02:14:20.217Z,-0.20
2023-02-14T02:16:55.172Z,-0.20
2023-02-14T02:19:40.651Z,-0.20
2023-02-14T02:22:27.750Z,-0.30
2023-02-14T02:25:27.171Z,-0.20
2023-02-14T02:28:21.141Z,-0.40
2023-02-14T02:31:01.210Z,-0.40
2023-02-14T02:33:47.210Z,-0.40
2023-02-14T02:36:32.216Z,-0.50
2023-02-14T02:39:31.416Z,-0.50
2023-02-14T02:42:33.377Z,-0.40
2023-02-14T02:45:31.638Z,-0.60
2023-02-14T02:48:12.386Z,-0.50
2023-02-14T02:51:22.875Z,-0.50
2023-02-14T02:54:10.310Z,-0.40
2023-02-14T02:57:03.402Z,-0.50
2023-02-14T02:59:34.734Z,-0.60
2023-02-14T03:02:07.356Z,-0.50
2023-02-14T03:04:56.044Z,-0.50
2023-02-14T03:07:36.919Z,-0.50
2023-02-14T03:10:17.779Z,-0.50
2023-02-14T03:13:22.230Z,-0.50
2023-02-14T03:16:16.857Z,-0.60
2023-02-14T03:19:05.718Z,-0.60
2023-02-14T03:21:49.790Z,-0.60
2023-02-14T03:24:52.202Z,-0.60
2023-02-14T03:27:26.976Z,-0.70
2023-02-14T03:30:12.428Z,-0.70
2023-02-14T03:32:45.708Z,-0.70
2023-02-14T03:35:27.533Z,-0.70
2023-02-14T03:38:16.749Z,-0.70
2023-02-14T03:40:55.002Z,-0.60
2023-02-14T03:43:30.700Z,-0.60
2023-02-14T03:46:23.503Z,-0.60
2023-02-14T03:48:53.411Z,-0.60
2023-02-14T03:51:21.248Z,-0.50
2023-02-14T03:53:53.151Z,-0.50
2023-02-14T03:56:34.673Z,-0.50
2023-02-14T03:59:17.287Z,-0.50
2023-02-14T04:01:53.042Z,-0.50
2023-02-14T04:04:23.115Z,-0.50
2023-02-14T04:06:50.101Z,-0.40
2023-02-14T04:09:16.884Z,-0.40
2023-02-14T04:11:46.341Z,-0.40
2023-02-14T04:14:13.122Z,-0.50
2023-02-14T04:16:58.506Z,-0.60
2023-02-14T04:19:25.519Z,-0.60
2023-02-14T04:21:53.182Z,-0.60
2023-02-14T04:24:20.480Z,-0.50
2023-02-14T04:27:06.025Z,-0.50
2023-02-14T04:29:32.792Z,-0.50
2023-02-14T04:31:59.639Z,-0.50
2023-02-14T04:34:26.463Z,-0.50
2023-02-14T04:36:54.477Z,-0.60
2023-02-14T04:39:21.377Z,-0.60
2023-02-14T04:41:48.176Z,-0.60
2023-02-14T04:44:15.043Z,-0.60
2023-02-14T04:46:41.820Z,-0.70
2023-02-14T04:49:08.617Z,-0.60
2023-02-14T04:51:35.401Z,-0.70
2023-02-14T04:54:02.265Z,-0.70
2023-02-14T04:56:29.135Z,-0.70
2023-02-14T04:58:56.403Z,-0.80
2023-02-14T05:01:23.184Z,-0.70
2023-02-14T05:03:50.089Z,-0.70
2023-02-14T05:06:16.937Z,-0.70
2023-02-14T05:08:43.759Z,-0.70
2023-02-14T05:11:10.717Z,-0.60
2023-02-14T05:13:37.477Z,-0.60
2023-02-14T05:16:04.662Z,-0.60
2023-02-14T05:18:31.463Z,-0.70
2023-02-14T05:20:58.650Z,-0.80
2023-02-14T05:23:25.635Z,-0.80
2023-02-14T05:25:52.842Z,-0.80
2023-02-14T05:28:20.099Z,-0.80
2023-02-14T05:30:47.466Z,-0.90
2023-02-14T05:33:14.444Z,-0.90
2023-02-14T05:35:41.391Z,-0.90
2023-02-14T05:38:08.579Z,-0.90
2023-02-14T05:40:35.454Z,-0.80
2023-02-14T05:43:02.272Z,-1.00
2023-02-14T05:45:29.197Z,-1.00
2023-02-14T05:47:56.072Z,-1.00
2023-02-14T05:50:23.113Z,-0.90
2023-02-14T05:52:49.896Z,-1.00
2023-02-14T05:55:16.975Z,-1.00
2023-02-14T05:57:43.792Z,-1.10
2023-02-14T06:00:11.321Z,-1.10
2023-02-14T06:02:38.480Z,-1.10
2023-02-14T06:05:05.568Z,-1.00
2023-02-14T06:07:32.367Z,-1.20
2023-02-14T06:09:59.245Z,-1.20
2023-02-14T06:12:26.099Z,-1.20
2023-02-14T06:14:55.360Z,-1.20
2023-02-14T06:17:27.908Z,-1.20
2023-02-14T06:19:54.753Z,-1.30
2023-02-14T06:22:23.149Z,-1.30
2023-02-14T06:24:50.011Z,-1.30
2023-02-14T06:27:16.992Z,-1.20
2023-02-14T06:29:43.800Z,-1.20
2023-02-14T06:32:10.767Z,-1.20
2023-02-14T06:34:37.691Z,-1.30
2023-02-14T06:37:04.465Z,-1.20
2023-02-14T06:39:31.804Z,-1.20
2023-02-14T06:41:58.874Z,-1.20
2023-02-14T06:44:26.016Z,-1.10
2023-02-14T06:46:52.811Z,-1.10
2023-02-14T06:49:19.589Z,-1.10
2023-02-14T06:51:46.597Z,-1.00
2023-02-14T06:54:13.791Z,-1.10
2023-02-14T06:56:40.621Z,-1.10
2023-02-14T06:59:07.391Z,-1.20
2023-02-14T07:01:34.384Z,-1.10
2023-02-14T07:04:01.194Z,-1.10
2023-02-14T07:06:27.943Z,-1.10
2023-02-14T07:08:54.823Z,-1.00
2023-02-14T07:11:21.789Z,-1.00
2023-02-14T07:13:49.606Z,-0.90
2023-02-14T07:16:16.820Z,-0.90
2023-02-14T07:18:43.935Z,-1.00
2023-02-14T07:21:11.239Z,-1.00
2023-02-14T07:23:38.226Z,-0.90
2023-02-14T07:26:05.578Z,-0.90
2023-02-14T07:28:33.945Z,-0.70
2023-02-14T07:31:02.355Z,-0.40
2023-02-14T07:33:29.870Z,0.20
2023-02-14T07:35:57.044Z,0.90
2023-02-14T07:38:30.568Z,1.60
2023-02-14T07:40:58.259Z,2.30
2023-02-14T07:43:25.760Z,2.90
2023-02-14T07:45:53.153Z,3.40
2023-02-14T07:48:20.390Z,3.90
2023-02-14T07:50:48.432Z,4.30
2023-02-14T07:53:15.580Z,4.70
2023-02-14T07:55:42.483Z,4.90
2023-02-14T07:58:46.130Z,5.40
2023-02-14T08:01:52.729Z,5.70
2023-02-14T08:04:20.045Z,5.90
2023-02-14T08:06:59.045Z,6.40
2023-02-14T08:13:13.650Z,7.10
2023-02-14T08:15:59.530Z,7.50
2023-02-14T08:18:27.803Z,7.90
2023-02-14T08:21:22.425Z,8.30
2023-02-14T08:23:49.682Z,8.50
2023-02-14T08:26:19.807Z,8.80
2023-02-14T08:28:46.868Z,9.00
2023-02-14T08:31:33.481Z,9.30
2023-02-14T08:34:01.942Z,9.60
2023-02-14T08:36:28.829Z,9.90
2023-02-14T08:38:57.647Z,10.00
2023-02-14T08:41:26.388Z,10.10
2023-02-14T08:43:53.545Z,10.30
2023-02-14T08:46:20.530Z,10.60
2023-02-14T08:48:47.760Z,11.10
2023-02-14T08:51:15.260Z,11.20
2023-02-14T08:53:42.978Z,11.60
2023-02-14T08:56:12.531Z,11.70
2023-02-14T08:58:40.140Z,11.50
2023-02-14T09:01:17.308Z,11.40
2023-02-14T09:03:53.013Z,11.40
2023-02-14T09:06:29.892Z,11.60
2023-02-14T09:08:56.962Z,11.90
2023-02-14T09:11:30.651Z,12.30
2023-02-14T09:14:00.060Z,12.50
2023-02-14T09:16:35.514Z,12.80
2023-02-14T09:19:06.105Z,13.10
2023-02-14T09:21:35.768Z,13.10
2023-02-14T09:24:02.745Z,13.00
2023-02-14T09:26:33.674Z,13.20
2023-02-14T09:29:08.564Z,13.40
2023-02-14T09:31:35.513Z,13.60
2023-02-14T09:34:11.204Z,13.80
2023-02-14T09:36:38.336Z,13.80
2023-02-14T09:39:06.204Z,13.80
2023-02-14T09:41:59.500Z,13.40
2023-02-14T09:44:45.134Z,13.60
2023-02-14T09:47:38.133Z,13.90
2023-02-14T09:50:08.271Z,13.80
2023-02-14T09:52:35.434Z,13.60
2023-02-14T09:55:13.166Z,13.90
2023-02-14T09:57:48.563Z,14.20
2023-02-14T10:01:08.145Z,14.20
2023-02-14T10:04:06.262Z,14.40
2023-02-14T10:07:01.452Z,14.70
2023-02-14T10:09:54.487Z,14.80
2023-02-14T10:12:45.696Z,14.90
2023-02-14T10:15:48.653Z,14.20
2023-02-14T10:18:29.260Z,14.50
2023-02-14T10:21:02.632Z,14.90
2023-02-14T10:23:37.817Z,14.90
2023-02-14T10:26:26.466Z,14.70
2023-02-14T10:28:59.416Z,15.00
2023-02-14T10:31:28.916Z,14.90
2023-02-14T10:34:02.411Z,14.70
2023-02-14T10:36:46.892Z,14.70
2023-02-14T10:39:44.894Z,14.60
2023-02-14T10:42:47.364Z,14.50
2023-02-14T10:45:28.066Z,14.20
2023-02-14T10:48:19.328Z,13.90
2023-02-14T10:51:24.199Z,13.90
2023-02-14T10:54:04.344Z,13.90
2023-02-14T10:56:58.761Z,13.60
2023-02-14T10:59:39.353Z,13.60
2023-02-14T11:02:14.891Z,13.80
2023-02-14T11:04:47.481Z,13.90
2023-02-14T11:07:22.076Z,14.20
2023-02-14T11:09:49.023Z,14.40
2023-02-14T11:12:54.798Z,14.40
2023-02-14T11:15:39.510Z,14.10
2023-02-14T11:18:25.341Z,13.80
2023-02-14T11:21:12.635Z,13.70
2023-02-14T11:23:48.574Z,13.70
2023-02-14T11:26:23.542Z,13.80
2023-02-14T11:29:02.861Z,13.90
2023-02-14T11:31:35.623Z,13.80
2023-02-14T11:34:22.263Z,13.80
2023-02-14T11:36:49.436Z,13.70
2023-02-14T11:39:36.677Z,13.70
2023-02-14T11:42:05.793Z,13.60
2023-02-14T11:44:36.883Z,13.70
2023-02-14T11:47:31.509Z,14.00
2023-02-14T11:50:02.804Z,14.30
2023-02-14T11:52:30.882Z,14.20
2023-02-14T11:54:58.726Z,14.40
2023-02-14T11:57:46.911Z,14.50
2023-02-14T12:00:19.841Z,14.30
2023-02-14T12:02:49.818Z,14.20
2023-02-14T12:05:25.625Z,14.20
2023-02-14T12:08:04.988Z,14.40
2023-02-14T12:10:35.512Z,14.20
2023-02-14T12:13:09.911Z,14.30
2023-02-14T12:15:49.226Z,14.50
2023-02-14T12:18:40.794Z,14.40
2023-02-14T12:21:21.690Z,14.30
2023-02-14T12:24:04.524Z,14.10
2023-02-14T12:26:34.110Z,13.90
2023-02-14T12:29:26.346Z,13.80
2023-02-14T12:31:58.145Z,13.70
2023-02-14T12:34:25.161Z,13.70
2023-02-14T12:37:29.837Z,13.90
2023-02-14T12:40:27.676Z,13.90
2023-02-14T12:43:08.530Z,13.80
2023-02-14T12:45:58.709Z,13.90
2023-02-14T12:48:50.350Z,13.80
2023-02-14T12:51:37.685Z,13.70
2023-02-14T12:54:32.318Z,13.70
2023-02-14T12:57:20.457Z,13.60
2023-02-14T12:59:50.267Z,13.60
2023-02-14T13:02:52.103Z,13.80
2023-02-14T13:05:42.670Z,13.80
2023-02-14T13:08:32.060Z,13.70
2023-02-14T13:11:16.108Z,13.70
2023-02-14T13:14:17.985Z,13.60
2023-02-14T13:16:54.902Z,13.60
2023-02-14T13:19:27.924Z,13.60
2023-02-14T13:21:58.838Z,13.50
2023-02-14T13:24:34.003Z,13.50
2023-02-14T13:27:03.236Z,13.30
2023-02-14T13:29:44.090Z,13.10
2023-02-14T13:32:15.475Z,13.20
2023-02-14T13:34:46.839Z,13.00
2023-02-14T13:37:17.439Z,12.90
2023-02-14T13:39:55.392Z,13.00
2023-02-14T13:42:47.072Z,12.90
2023-02-14T13:45:38.365Z,12.90
2023-02-14T13:48:10.276Z,12.90
2023-02-14T13:50:54.394Z,12.90
2023-02-14T13:53:40.772Z,12.90
2023-02-14T13:56:16.467Z,12.90
2023-02-14T13:58:53.711Z,12.80
2023-02-14T14:01:34.857Z,12.70
2023-02-14T14:04:26.611Z,12.70
2023-02-14T14:07:05.945Z,12.60
2023-02-14T14:09:42.234Z,12.60
2023-02-14T14:12:27.799Z,12.60
2023-02-14T14:15:07.061Z,12.60
2023-02-14T14:17:36.204Z,12.60
2023-02-14T14:20:23.278Z,12.60
2023-02-14T14:23:00.917Z,12.60
2023-02-14T14:25:39.878Z,12.60
2023-02-14T14:28:17.322Z,12.50
2023-02-14T14:30:45.184Z,12.50
2023-02-14T14:33:16.633Z,12.50
2023-02-14T14:35:53.584Z,12.50
2023-02-14T14:38:20.884Z,12.50
2023-02-14T14:40:48.865Z,12.50
2023-02-14T14:43:32.737Z,12.40
2023-02-14T14:46:02.621Z,12.40
2023-02-14T14:48:30.259Z,12.60
2023-02-14T14:50:58.096Z,12.40
2023-02-14T14:53:34.719Z,12.50
2023-02-14T14:56:02.097Z,12.40
2023-02-14T14:58:39.571Z,12.40
2023-02-14T15:01:13.223Z,12.30
2023-02-14T15:03:40.422Z,12.30
2023-02-14T15:06:09.507Z,12.20
2023-02-14T15:08:37.063Z,12.10
2023-02-14T15:11:34.893Z,12.10
2023-02-14T15:14:05.813Z,12.20
2023-02-14T15:16:48.843Z,12.10
2023-02-14T15:19:34.817Z,12.10
2023-02-14T15:22:04.958Z,12.10
2023-02-14T15:24:35.223Z,12.00
2023-02-14T15:27:03.362Z,11.90
2023-02-14T15:29:32.748Z,11.90
2023-02-14T15:32:03.175Z,11.90
2023-02-14T15:34:38.055Z,11.90
2023-02-14T15:37:06.807Z,11.90
2023-02-14T15:39:48.163Z,11.90
2023-02-14T15:42:25.943Z,11.90
2023-02-14T15:45:16.864Z,11.80
2023-02-14T15:47:46.701Z,11.80
2023-02-14T15:50:19.972Z,11.70
2023-02-14T15:52:48.430Z,11.70
2023-02-14T15:55:22.414Z,11.60
2023-02-14T15:57:56.328Z,11.50
2023-02-14T16:00:24.521Z,11.50
2023-02-14T16:02:59.611Z,11.40
2023-02-14T16:05:27.330Z,11.30
2023-02-14T16:08:06.058Z,11.20
2023-02-14T16:10:39.050Z,11.10
2023-02-14T16:13:18.855Z,11.00
2023-02-14T16:16:01.653Z,10.90
2023-02-14T16:18:47.728Z,10.80
2023-02-14T16:21:23.046Z,10.60
2023-02-14T16:24:11.140Z,10.50
2023-02-14T16:26:39.526Z,10.30
2023-02-14T16:29:08.795Z,10.20
2023-02-14T16:31:40.292Z,10.00
2023-02-14T16:34:12.295Z,9.90
2023-02-14T16:36:40.077Z,9.80
2023-02-14T16:39:15.596Z,9.80
2023-02-14T16:41:44.855Z,9.70
2023-02-14T16:44:19.485Z,9.70
2023-02-14T16:46:47.124Z,9.70
2023-02-14T16:49:14.814Z,9.60
2023-02-14T16:51:45.316Z,9.50
2023-02-14T16:54:19.649Z,9.50
2023-02-14T16:57:02.582Z,9.40
2023-02-14T16:59:30.457Z,9.30
2023-02-14T17:01:58.409Z,9.20
2023-02-14T17:04:25.736Z,9.20
2023-02-14T17:06:55.312Z,9.10
2023-02-14T17:09:27.983Z,9.00
2023-02-14T17:11:58.746Z,9.00
2023-02-14T17:14:32.302Z,8.90
2023-02-14T17:16:59.868Z,9.00
2023-02-14T17:19:27.023Z,9.00
2023-02-14T17:22:00.528Z,9.00
2023-02-14T17:24:27.466Z,8.90
2023-02-14T17:26:54.715Z,8.80
2023-02-14T17:29:21.872Z,8.80
2023-02-14T17:31:48.904Z,8.70
2023-02-14T17:34:15.932Z,8.70
2023-02-14T17:36:42.809Z,8.60
2023-02-14T17:39:10.044Z,8.50
2023-02-14T17:41:37.380Z,8.40
2023-02-14T17:44:05.738Z,8.30
2023-02-14T17:46:32.700Z,8.20
2023-02-14T17:49:02.568Z,8.10
2023-02-14T17:51:29.985Z,8.00
2023-02-14T17:53:58.992Z,7.90
2023-02-14T17:56:26.677Z,7.90
2023-02-14T17:58:55.385Z,7.90
2023-02-14T18:01:25.103Z,7.70
2023-02-14T18:03:54.056Z,7.60
2023-02-14T18:06:21.727Z,7.70
2023-02-14T18:08:53.137Z,7.70
2023-02-14T18:11:21.850Z,7.70
2023-02-14T18:13:50.105Z,7.70
2023-02-14T18:16:18.885Z,7.60
2023-02-14T18:18:46.512Z,7.60
2023-02-14T18:21:15.416Z,7.60
2023-02-14T18:23:42.916Z,7.60
2023-02-14T18:26:15.129Z,7.50
2023-02-14T18:28:42.244Z,7.50
2023-02-14T18:31:12.042Z,7.50
2023-02-14T18:33:39.851Z,7.40
2023-02-14T18:36:12.001Z,7.30
2023-02-14T18:38:40.645Z,7.30
2023-02-14T18:41:09.656Z,7.10
2023-02-14T18:43:37.233Z,7.00
2023-02-14T18:46:06.285Z,6.90
2023-02-14T18:48:34.136Z,6.80
2023-02-14T18:51:12.540Z,6.70
2023-02-14T18:53:40.060Z,6.60
2023-02-14T18:56:15.211Z,6.50
2023-02-14T18:58:44.221Z,6.40
2023-02-14T19:01:13.754Z,6.30
2023-02-14T19:03:41.275Z,6.20
2023-02-14T19:06:09.687Z,6.20
2023-02-14T19:08:38.594Z,6.00
2023-02-14T19:11:18.092Z,5.90
2023-02-14T19:13:50.170Z,5.90
2023-02-14T19:16:20.381Z,5.80
2023-02-14T19:18:47.463Z,5.50
2023-02-14T19:21:25.716Z,5.40
2023-02-14T19:23:54.967Z,5.30
2023-02-14T19:26:27.690Z,5.20
2023-02-14T19:29:00.024Z,5.20
2023-02-14T19:31:27.823Z,5.10
2023-02-14T19:33:55.112Z,5.00
2023-02-14T19:36:23.711Z,4.90
2023-02-14T19:38:52.845Z,4.90
2023-02-14T19:41:28.297Z,4.80
2023-02-14T19:43:59.381Z,4.80
2023-02-14T19:46:27.416Z,4.60
2023-02-14T19:48:56.484Z,4.60
2023-02-14T19:51:51.576Z,4.50
2023-02-14T19:54:19.175Z,4.40
2023-02-14T19:56:47.225Z,4.30
2023-02-14T19:59:20.327Z,4.30
2023-02-14T20:01:53.000Z,4.30
2023-02-14T20:04:26.240Z,4.40
2023-02-14T20:06:54.483Z,4.70
2023-02-14T20:09:22.890Z,5.20
2023-02-14T20:11:51.356Z,5.50
2023-02-14T20:14:21.308Z,5.80
2023-02-14T20:16:49.129Z,5.90
2023-02-14T20:19:19.382Z,6.00
2023-02-14T20:21:50.356Z,6.10
2023-02-14T20:24:21.288Z,6.20
2023-02-14T20:26:50.143Z,6.20
2023-02-14T20:29:21.452Z,6.30
2023-02-14T20:31:51.620Z,6.30
2023-02-14T20:34:19.393Z,6.30
2023-02-14T20:36:53.346Z,6.20
2023-02-14T20:39:23.117Z,6.20
2023-02-14T20:41:50.590Z,6.10
2023-02-14T20:44:22.361Z,5.90
2023-02-14T20:46:51.931Z,5.80
2023-02-14T20:49:20.595Z,5.60
2023-02-14T20:51:49.919Z,5.40
2023-02-14T20:54:21.583Z,5.20
2023-02-14T20:56:48.918Z,5.00
2023-02-14T20:59:16.047Z,4.90
2023-02-14T21:01:45.809Z,4.80
2023-02-14T21:04:14.423Z,4.60
2023-02-14T21:06:41.826Z,4.50
2023-02-14T21:09:09.092Z,4.40
2023-02-14T21:11:36.436Z,4.30
2023-02-14T21:14:03.504Z,4.30
2023-02-14T21:16:31.324Z,4.20
2023-02-14T21:19:00.319Z,4.20
2023-02-14T21:21:47.725Z,4.10
2023-02-14T21:24:16.154Z,4.10
2023-02-14T21:26:43.989Z,4.00
2023-02-14T21:29:17.217Z,4.00
2023-02-14T21:31:44.701Z,3.90
2023-02-14T21:34:14.556Z,3.90
2023-02-14T21:36:41.736Z,3.80
2023-02-14T21:39:08.968Z,3.70
2023-02-14T21:41:37.055Z,3.60
2023-02-14T21:44:05.283Z,3.50
2023-02-14T21:46:36.085Z,3.50
2023-02-14T21:49:25.928Z,3.40
2023-02-14T21:51:53.297Z,3.30
2023-02-14T21:54:20.731Z,3.40
2023-02-14T21:56:50.126Z,3.20
2023-02-14T21:59:17.655Z,3.20
2023-02-14T22:01:47.911Z,3.10
2023-02-14T22:04:15.431Z,3.00
2023-02-14T22:06:43.183Z,3.00
2023-02-14T22:09:13.335Z,2.90
2023-02-14T22:11:41.396Z,2.90
2023-02-14T22:14:09.753Z,2.90
2023-02-14T22:16:38.623Z,2.80
2023-02-14T22:19:07.080Z,2.90
2023-02-14T22:21:34.822Z,2.80
2023-02-14T22:24:02.379Z,2.70
2023-02-14T22:26:35.576Z,2.70
2023-02-14T22:29:06.410Z,2.60
2023-02-14T22:31:37.152Z,2.60
2023-02-14T22:34:06.104Z,2.70
2023-02-14T22:36:33.336Z,2.50
2023-02-14T22:39:00.651Z,2.50
2023-02-14T22:41:27.896Z,2.40
2023-02-14T22:43:55.349Z,2.50
2023-02-14T22:46:28.850Z,2.40
2023-02-14T22:48:56.784Z,2.20
2023-02-14T22:51:32.650Z,2.00
2023-02-14T22:54:17.612Z,2.10
2023-02-14T22:56:46.979Z,2.00
2023-02-14T22:59:18.830Z,2.10
2023-02-14T23:01:46.228Z,2.00
2023-02-14T23:04:14.940Z,2.00
2023-02-14T23:06:41.960Z,1.90
2023-02-14T23:09:11.115Z,1.90
2023-02-14T23:11:39.755Z,2.00
2023-02-14T23:14:25.563Z,1.70
2023-02-14T23:17:11.182Z,1.80
2023-02-14T23:19:56.942Z,1.80
2023-02-14T23:22:30.116Z,1.70
2023-02-14T23:24:59.802Z,1.90
2023-02-14T23:27:32.767Z,2.10
2023-02-14T23:30:00.271Z,2.00
2023-02-14T23:32:27.784Z,2.10
2023-02-14T23:34:54.660Z,2.00
2023-02-14T23:37:21.593Z,1.80
2023-02-14T23:39:48.395Z,1.80
2023-02-14T23:42:16.164Z,1.80
2023-02-14T23:44:46.941Z,1.80
2023-02-14T23:47:14.547Z,2.00
2023-02-14T23:49:42.151Z,1.70
2023-02-14T23:52:11.367Z,1.60
2023-02-14T23:54:39.332Z,1.60
2023-02-14T23:57:07.420Z,1.60
2023-02-14T23:59:34.376Z,1.50
